sensor_id;sensor_type;location;lat;lon;timestamp;P1;durP1;ratioP1;P2;durP2;ratioP2
29362;SDS011;16349;53.672;10.014;2022-11-18T00:01:36;15.50;;;11.10;;
29362;SDS011;16349;53.672;10.014;2022-11-18T00:04:02;16.67;;;11.07;;
29362;SDS011;16349;53.672;10.014;2022-11-18T00:06:31;15.20;;;11.00;;
29362;SDS011;16349;53.672;10.014;2022-11-18T00:08:58;16.23;;;11.17;;
29362;SDS011;16349;53.672;10.014;2022-11-18T00:11:26;17.07;;;11.43;;
29362;SDS011;16349;53.672;10.014;2022-11-18T00:14:11;14.67;;;10.73;;
29362;SDS011;16349;53.672;10.014;2022-11-18T00:16:45;14.70;;;9.93;;
29362;SDS011;16349;53.672;10.014;2022-11-18T00:19:12;17.40;;;10.90;;
29362;SDS011;16349;53.672;10.014;2022-11-18T00:21:41;18.23;;;11.60;;
29362;SDS011;16349;53.672;10.014;2022-11-18T00:24:08;16.93;;;10.90;;
29362;SDS011;16349;53.672;10.014;2022-11-18T00:26:35;20.40;;;12.57;;
29362;SDS011;16349;53.672;10.014;2022-11-18T00:29:02;20.20;;;12.77;;
29362;SDS011;16349;53.672;10.014;2022-11-18T00:31:29;19.57;;;12.03;;
29362;SDS011;16349;53.672;10.014;2022-11-18T00:33:56;16.83;;;11.30;;
29362;SDS011;16349;53.672;10.014;2022-11-18T00:36:23;19.57;;;11.97;;
29362;SDS011;16349;53.672;10.014;2022-11-18T00:38:51;19.10;;;12.07;;
29362;SDS011;16349;53.672;10.014;2022-11-18T00:41:19;17.63;;;11.50;;
29362;SDS011;16349;53.672;10.014;2022-11-18T00:43:46;18.70;;;11.77;;
29362;SDS011;16349;53.672;10.014;2022-11-18T00:46:12;18.00;;;11.83;;
29362;SDS011;16349;53.672;10.014;2022-11-18T00:48:40;19.90;;;12.47;;
29362;SDS011;16349;53.672;10.014;2022-11-18T00:51:08;17.77;;;11.57;;
29362;SDS011;16349;53.672;10.014;2022-11-18T00:53:38;17.03;;;10.90;;
29362;SDS011;16349;53.672;10.014;2022-11-18T00:56:06;15.87;;;10.97;;
29362;SDS011;16349;53.672;10.014;2022-11-18T00:58:34;17.77;;;11.97;;
29362;SDS011;16349;53.672;10.014;2022-11-18T01:01:01;20.73;;;12.40;;
29362;SDS011;16349;53.672;10.014;2022-11-18T01:03:29;17.53;;;12.43;;
29362;SDS011;16349;53.672;10.014;2022-11-18T01:05:56;15.17;;;10.57;;
29362;SDS011;16349;53.672;10.014;2022-11-18T01:08:23;17.03;;;10.97;;
29362;SDS011;16349;53.672;10.014;2022-11-18T01:10:51;17.23;;;11.50;;
29362;SDS011;16349;53.672;10.014;2022-11-18T01:13:20;17.33;;;11.27;;
29362;SDS011;16349;53.672;10.014;2022-11-18T01:15:49;18.70;;;12.10;;
29362;SDS011;16349;53.672;10.014;2022-11-18T01:18:18;17.10;;;12.20;;
29362;SDS011;16349;53.672;10.014;2022-11-18T01:20:48;20.03;;;12.23;;
29362;SDS011;16349;53.672;10.014;2022-11-18T01:23:15;18.57;;;12.07;;
29362;SDS011;16349;53.672;10.014;2022-11-18T01:25:43;18.20;;;11.80;;
29362;SDS011;16349;53.672;10.014;2022-11-18T01:28:12;19.40;;;12.53;;
29362;SDS011;16349;53.672;10.014;2022-11-18T01:30:40;20.53;;;13.00;;
29362;SDS011;16349;53.672;10.014;2022-11-18T01:33:08;19.67;;;13.27;;
29362;SDS011;16349;53.672;10.014;2022-11-18T01:35:39;18.07;;;12.73;;
29362;SDS011;16349;53.672;10.014;2022-11-18T01:38:08;19.97;;;12.53;;
29362;SDS011;16349;53.672;10.014;2022-11-18T01:40:36;19.77;;;12.97;;
29362;SDS011;16349;53.672;10.014;2022-11-18T01:43:04;20.40;;;11.47;;
29362;SDS011;16349;53.672;10.014;2022-11-18T01:45:36;19.10;;;12.40;;
29362;SDS011;16349;53.672;10.014;2022-11-18T01:48:06;20.63;;;12.63;;
29362;SDS011;16349;53.672;10.014;2022-11-18T01:50:38;18.43;;;11.87;;
29362;SDS011;16349;53.672;10.014;2022-11-18T01:53:10;18.27;;;12.37;;
29362;SDS011;16349;53.672;10.014;2022-11-18T01:55:41;18.90;;;13.07;;
29362;SDS011;16349;53.672;10.014;2022-11-18T01:58:14;17.37;;;11.97;;
29362;SDS011;16349;53.672;10.014;2022-11-18T02:00:45;18.97;;;12.57;;
29362;SDS011;16349;53.672;10.014;2022-11-18T02:03:14;18.10;;;11.83;;
29362;SDS011;16349;53.672;10.014;2022-11-18T02:05:42;16.53;;;11.83;;
29362;SDS011;16349;53.672;10.014;2022-11-18T02:08:10;20.17;;;13.73;;
29362;SDS011;16349;53.672;10.014;2022-11-18T02:10:37;18.47;;;11.90;;
29362;SDS011;16349;53.672;10.014;2022-11-18T02:13:04;18.90;;;12.90;;
29362;SDS011;16349;53.672;10.014;2022-11-18T02:15:38;19.20;;;12.50;;
29362;SDS011;16349;53.672;10.014;2022-11-18T02:18:16;17.47;;;12.07;;
29362;SDS011;16349;53.672;10.014;2022-11-18T02:20:51;22.27;;;13.73;;
29362;SDS011;16349;53.672;10.014;2022-11-18T02:26:53;19.43;;;12.90;;
29362;SDS011;16349;53.672;10.014;2022-11-18T02:29:40;18.93;;;12.43;;
29362;SDS011;16349;53.672;10.014;2022-11-18T02:32:14;23.37;;;13.17;;
29362;SDS011;16349;53.672;10.014;2022-11-18T02:34:47;18.13;;;13.10;;
29362;SDS011;16349;53.672;10.014;2022-11-18T02:37:17;18.73;;;13.17;;
29362;SDS011;16349;53.672;10.014;2022-11-18T02:39:50;19.90;;;13.90;;
29362;SDS011;16349;53.672;10.014;2022-11-18T02:42:21;18.23;;;12.67;;
29362;SDS011;16349;53.672;10.014;2022-11-18T02:44:51;21.27;;;13.30;;
29362;SDS011;16349;53.672;10.014;2022-11-18T02:47:22;16.70;;;11.83;;
29362;SDS011;16349;53.672;10.014;2022-11-18T02:49:53;18.50;;;12.67;;
29362;SDS011;16349;53.672;10.014;2022-11-18T02:52:23;18.73;;;11.93;;
29362;SDS011;16349;53.672;10.014;2022-11-18T02:54:52;19.03;;;12.63;;
29362;SDS011;16349;53.672;10.014;2022-11-18T02:57:20;20.53;;;13.37;;
29362;SDS011;16349;53.672;10.014;2022-11-18T02:59:51;20.07;;;13.27;;
29362;SDS011;16349;53.672;10.014;2022-11-18T03:02:21;18.13;;;11.37;;
29362;SDS011;16349;53.672;10.014;2022-11-18T03:04:50;15.83;;;11.67;;
29362;SDS011;16349;53.672;10.014;2022-11-18T03:07:21;19.77;;;12.63;;
29362;SDS011;16349;53.672;10.014;2022-11-18T03:09:53;15.17;;;11.60;;
29362;SDS011;16349;53.672;10.014;2022-11-18T03:12:23;17.40;;;11.47;;
29362;SDS011;16349;53.672;10.014;2022-11-18T03:15:02;18.27;;;12.07;;
29362;SDS011;16349;53.672;10.014;2022-11-18T03:17:40;14.77;;;10.97;;
29362;SDS011;16349;53.672;10.014;2022-11-18T03:20:14;18.83;;;12.47;;
29362;SDS011;16349;53.672;10.014;2022-11-18T03:22:47;15.23;;;11.93;;
29362;SDS011;16349;53.672;10.014;2022-11-18T03:25:20;17.57;;;12.23;;
29362;SDS011;16349;53.672;10.014;2022-11-18T03:27:56;15.93;;;11.67;;
29362;SDS011;16349;53.672;10.014;2022-11-18T03:30:34;19.40;;;12.10;;
29362;SDS011;16349;53.672;10.014;2022-11-18T03:33:07;19.27;;;13.13;;
29362;SDS011;16349;53.672;10.014;2022-11-18T03:35:38;18.40;;;11.37;;
29362;SDS011;16349;53.672;10.014;2022-11-18T03:38:08;18.70;;;11.90;;
29362;SDS011;16349;53.672;10.014;2022-11-18T03:40:38;14.10;;;10.87;;
29362;SDS011;16349;53.672;10.014;2022-11-18T03:43:11;19.63;;;12.73;;
29362;SDS011;16349;53.672;10.014;2022-11-18T03:45:43;17.00;;;11.97;;
29362;SDS011;16349;53.672;10.014;2022-11-18T03:48:15;16.00;;;11.57;;
29362;SDS011;16349;53.672;10.014;2022-11-18T03:50:45;14.93;;;11.17;;
29362;SDS011;16349;53.672;10.014;2022-11-18T03:53:16;17.77;;;11.37;;
29362;SDS011;16349;53.672;10.014;2022-11-18T03:55:46;16.67;;;11.53;;
29362;SDS011;16349;53.672;10.014;2022-11-18T03:58:17;17.80;;;11.67;;
29362;SDS011;16349;53.672;10.014;2022-11-18T04:00:52;17.27;;;12.03;;
29362;SDS011;16349;53.672;10.014;2022-11-18T04:03:24;14.57;;;10.57;;
29362;SDS011;16349;53.672;10.014;2022-11-18T04:05:51;17.80;;;11.67;;
29362;SDS011;16349;53.672;10.014;2022-11-18T04:08:28;17.97;;;12.57;;
29362;SDS011;16349;53.672;10.014;2022-11-18T04:10:59;18.10;;;12.27;;
29362;SDS011;16349;53.672;10.014;2022-11-18T04:13:30;16.50;;;12.17;;
29362;SDS011;16349;53.672;10.014;2022-11-18T04:16:01;18.10;;;12.27;;
29362;SDS011;16349;53.672;10.014;2022-11-18T04:18:28;20.43;;;12.93;;
29362;SDS011;16349;53.672;10.014;2022-11-18T04:20:55;18.50;;;11.87;;
29362;SDS011;16349;53.672;10.014;2022-11-18T04:23:22;21.10;;;12.97;;
29362;SDS011;16349;53.672;10.014;2022-11-18T04:25:49;18.60;;;12.50;;
29362;SDS011;16349;53.672;10.014;2022-11-18T04:28:16;25.03;;;16.33;;
29362;SDS011;16349;53.672;10.014;2022-11-18T04:30:43;20.90;;;14.20;;
29362;SDS011;16349;53.672;10.014;2022-11-18T04:33:11;21.60;;;13.43;;
29362;SDS011;16349;53.672;10.014;2022-11-18T04:35:38;18.33;;;13.50;;
29362;SDS011;16349;53.672;10.014;2022-11-18T04:38:05;18.83;;;13.50;;
29362;SDS011;16349;53.672;10.014;2022-11-18T04:40:32;20.77;;;14.90;;
29362;SDS011;16349;53.672;10.014;2022-11-18T04:42:58;20.50;;;13.53;;
29362;SDS011;16349;53.672;10.014;2022-11-18T04:45:25;19.40;;;14.37;;
29362;SDS011;16349;53.672;10.014;2022-11-18T04:47:52;20.23;;;13.67;;
29362;SDS011;16349;53.672;10.014;2022-11-18T04:50:21;20.37;;;14.87;;
29362;SDS011;16349;53.672;10.014;2022-11-18T04:52:48;18.40;;;13.57;;
29362;SDS011;16349;53.672;10.014;2022-11-18T04:55:14;22.07;;;14.13;;
29362;SDS011;16349;53.672;10.014;2022-11-18T04:57:41;21.90;;;14.30;;
29362;SDS011;16349;53.672;10.014;2022-11-18T05:00:09;22.47;;;13.83;;
29362;SDS011;16349;53.672;10.014;2022-11-18T05:02:36;20.47;;;13.70;;
29362;SDS011;16349;53.672;10.014;2022-11-18T05:05:03;22.57;;;14.50;;
29362;SDS011;16349;53.672;10.014;2022-11-18T05:07:32;22.07;;;15.03;;
29362;SDS011;16349;53.672;10.014;2022-11-18T05:09:59;22.00;;;15.23;;
29362;SDS011;16349;53.672;10.014;2022-11-18T05:12:27;19.83;;;14.30;;
29362;SDS011;16349;53.672;10.014;2022-11-18T05:15:11;17.63;;;13.30;;
29362;SDS011;16349;53.672;10.014;2022-11-18T05:17:38;23.43;;;14.70;;
29362;SDS011;16349;53.672;10.014;2022-11-18T05:20:05;21.17;;;14.20;;
29362;SDS011;16349;53.672;10.014;2022-11-18T05:22:34;20.47;;;14.00;;
29362;SDS011;16349;53.672;10.014;2022-11-18T05:25:00;20.80;;;14.17;;
29362;SDS011;16349;53.672;10.014;2022-11-18T05:27:27;21.70;;;13.77;;
29362;SDS011;16349;53.672;10.014;2022-11-18T05:29:54;25.73;;;14.80;;
29362;SDS011;16349;53.672;10.014;2022-11-18T05:32:22;23.40;;;15.03;;
29362;SDS011;16349;53.672;10.014;2022-11-18T05:34:49;21.53;;;13.80;;
29362;SDS011;16349;53.672;10.014;2022-11-18T05:37:16;22.03;;;14.60;;
29362;SDS011;16349;53.672;10.014;2022-11-18T05:39:44;21.80;;;14.30;;
29362;SDS011;16349;53.672;10.014;2022-11-18T05:42:11;21.23;;;14.60;;
29362;SDS011;16349;53.672;10.014;2022-11-18T05:44:56;23.87;;;14.87;;
29362;SDS011;16349;53.672;10.014;2022-11-18T05:47:23;21.43;;;13.83;;
29362;SDS011;16349;53.672;10.014;2022-11-18T05:49:50;19.00;;;14.07;;
29362;SDS011;16349;53.672;10.014;2022-11-18T05:52:17;27.40;;;14.80;;
29362;SDS011;16349;53.672;10.014;2022-11-18T05:54:46;24.07;;;16.33;;
29362;SDS011;16349;53.672;10.014;2022-11-18T05:57:15;22.87;;;14.97;;
29362;SDS011;16349;53.672;10.014;2022-11-18T05:59:42;25.13;;;15.37;;
29362;SDS011;16349;53.672;10.014;2022-11-18T06:02:10;21.70;;;15.37;;
29362;SDS011;16349;53.672;10.014;2022-11-18T06:04:40;22.70;;;15.07;;
29362;SDS011;16349;53.672;10.014;2022-11-18T06:07:11;22.50;;;14.67;;
29362;SDS011;16349;53.672;10.014;2022-11-18T06:09:42;22.07;;;14.47;;
29362;SDS011;16349;53.672;10.014;2022-11-18T06:12:13;23.47;;;15.07;;
29362;SDS011;16349;53.672;10.014;2022-11-18T06:14:44;25.63;;;15.40;;
29362;SDS011;16349;53.672;10.014;2022-11-18T06:17:15;21.97;;;14.07;;
29362;SDS011;16349;53.672;10.014;2022-11-18T06:19:45;23.73;;;14.87;;
29362;SDS011;16349;53.672;10.014;2022-11-18T06:22:12;25.17;;;15.10;;
29362;SDS011;16349;53.672;10.014;2022-11-18T06:24:39;25.30;;;15.47;;
29362;SDS011;16349;53.672;10.014;2022-11-18T06:27:09;24.03;;;15.10;;
29362;SDS011;16349;53.672;10.014;2022-11-18T06:29:37;23.47;;;15.47;;
29362;SDS011;16349;53.672;10.014;2022-11-18T06:32:04;23.53;;;15.37;;
29362;SDS011;16349;53.672;10.014;2022-11-18T06:34:32;23.57;;;15.10;;
29362;SDS011;16349;53.672;10.014;2022-11-18T06:36:59;24.67;;;15.43;;
29362;SDS011;16349;53.672;10.014;2022-11-18T06:39:36;25.17;;;15.53;;
29362;SDS011;16349;53.672;10.014;2022-11-18T06:42:03;22.60;;;14.43;;
29362;SDS011;16349;53.672;10.014;2022-11-18T06:44:31;23.83;;;14.73;;
29362;SDS011;16349;53.672;10.014;2022-11-18T06:46:56;20.43;;;14.23;;
29362;SDS011;16349;53.672;10.014;2022-11-18T06:49:24;23.43;;;15.17;;
29362;SDS011;16349;53.672;10.014;2022-11-18T06:51:52;22.00;;;14.27;;
29362;SDS011;16349;53.672;10.014;2022-11-18T06:54:19;20.10;;;13.70;;
29362;SDS011;16349;53.672;10.014;2022-11-18T06:56:46;21.70;;;14.33;;
29362;SDS011;16349;53.672;10.014;2022-11-18T06:59:13;24.37;;;15.33;;
29362;SDS011;16349;53.672;10.014;2022-11-18T07:01:47;21.80;;;14.43;;
29362;SDS011;16349;53.672;10.014;2022-11-18T07:04:14;23.13;;;14.37;;
29362;SDS011;16349;53.672;10.014;2022-11-18T07:06:41;23.50;;;13.83;;
29362;SDS011;16349;53.672;10.014;2022-11-18T07:09:08;22.33;;;15.13;;
29362;SDS011;16349;53.672;10.014;2022-11-18T07:11:35;21.20;;;13.87;;
29362;SDS011;16349;53.672;10.014;2022-11-18T07:14:04;21.07;;;14.00;;
29362;SDS011;16349;53.672;10.014;2022-11-18T07:16:32;21.00;;;14.07;;
29362;SDS011;16349;53.672;10.014;2022-11-18T07:19:06;22.23;;;14.77;;
29362;SDS011;16349;53.672;10.014;2022-11-18T07:21:38;22.20;;;14.33;;
29362;SDS011;16349;53.672;10.014;2022-11-18T07:24:06;20.80;;;14.30;;
29362;SDS011;16349;53.672;10.014;2022-11-18T07:26:34;20.20;;;13.57;;
29362;SDS011;16349;53.672;10.014;2022-11-18T07:29:01;22.50;;;14.63;;
29362;SDS011;16349;53.672;10.014;2022-11-18T07:31:29;23.47;;;14.63;;
29362;SDS011;16349;53.672;10.014;2022-11-18T07:33:56;23.33;;;15.23;;
29362;SDS011;16349;53.672;10.014;2022-11-18T07:36:25;24.10;;;15.10;;
29362;SDS011;16349;53.672;10.014;2022-11-18T07:38:53;22.63;;;14.27;;
29362;SDS011;16349;53.672;10.014;2022-11-18T07:41:21;22.00;;;14.63;;
29362;SDS011;16349;53.672;10.014;2022-11-18T07:43:50;23.30;;;15.60;;
29362;SDS011;16349;53.672;10.014;2022-11-18T07:46:18;27.20;;;16.13;;
29362;SDS011;16349;53.672;10.014;2022-11-18T07:48:47;28.90;;;14.97;;
29362;SDS011;16349;53.672;10.014;2022-11-18T07:51:15;20.17;;;13.77;;
29362;SDS011;16349;53.672;10.014;2022-11-18T07:53:45;23.80;;;13.67;;
29362;SDS011;16349;53.672;10.014;2022-11-18T07:56:11;25.93;;;14.77;;
29362;SDS011;16349;53.672;10.014;2022-11-18T07:58:40;20.87;;;13.90;;
29362;SDS011;16349;53.672;10.014;2022-11-18T08:01:07;20.50;;;12.63;;
29362;SDS011;16349;53.672;10.014;2022-11-18T08:03:35;23.23;;;14.17;;
29362;SDS011;16349;53.672;10.014;2022-11-18T08:06:03;21.10;;;13.90;;
29362;SDS011;16349;53.672;10.014;2022-11-18T08:08:31;24.07;;;14.03;;
29362;SDS011;16349;53.672;10.014;2022-11-18T08:11:00;20.63;;;12.83;;
29362;SDS011;16349;53.672;10.014;2022-11-18T08:13:28;22.00;;;12.67;;
29362;SDS011;16349;53.672;10.014;2022-11-18T08:15:55;19.37;;;12.80;;
29362;SDS011;16349;53.672;10.014;2022-11-18T08:18:22;20.03;;;14.27;;
29362;SDS011;16349;53.672;10.014;2022-11-18T08:20:49;20.40;;;14.20;;
29362;SDS011;16349;53.672;10.014;2022-11-18T08:23:16;19.50;;;13.07;;
29362;SDS011;16349;53.672;10.014;2022-11-18T08:25:44;21.37;;;13.47;;
29362;SDS011;16349;53.672;10.014;2022-11-18T08:28:12;18.43;;;12.97;;
29362;SDS011;16349;53.672;10.014;2022-11-18T08:30:39;20.70;;;13.13;;
29362;SDS011;16349;53.672;10.014;2022-11-18T08:33:07;22.10;;;13.63;;
29362;SDS011;16349;53.672;10.014;2022-11-18T08:35:33;21.33;;;12.90;;
29362;SDS011;16349;53.672;10.014;2022-11-18T08:38:00;18.03;;;12.37;;
29362;SDS011;16349;53.672;10.014;2022-11-18T08:40:26;19.33;;;12.70;;
29362;SDS011;16349;53.672;10.014;2022-11-18T08:42:53;17.10;;;12.37;;
29362;SDS011;16349;53.672;10.014;2022-11-18T08:45:21;19.83;;;13.67;;
29362;SDS011;16349;53.672;10.014;2022-11-18T08:47:48;16.90;;;12.17;;
29362;SDS011;16349;53.672;10.014;2022-11-18T08:50:15;16.47;;;11.43;;
29362;SDS011;16349;53.672;10.014;2022-11-18T08:52:42;13.77;;;10.13;;
29362;SDS011;16349;53.672;10.014;2022-11-18T08:55:09;16.13;;;10.97;;
29362;SDS011;16349;53.672;10.014;2022-11-18T08:57:35;14.53;;;10.40;;
29362;SDS011;16349;53.672;10.014;2022-11-18T09:00:02;13.50;;;9.93;;
29362;SDS011;16349;53.672;10.014;2022-11-18T09:02:31;14.13;;;10.00;;
29362;SDS011;16349;53.672;10.014;2022-11-18T09:04:58;14.30;;;9.90;;
29362;SDS011;16349;53.672;10.014;2022-11-18T09:07:26;14.07;;;10.40;;
29362;SDS011;16349;53.672;10.014;2022-11-18T09:09:53;11.37;;;8.00;;
29362;SDS011;16349;53.672;10.014;2022-11-18T09:12:20;12.53;;;9.00;;
29362;SDS011;16349;53.672;10.014;2022-11-18T09:14:46;11.67;;;8.27;;
29362;SDS011;16349;53.672;10.014;2022-11-18T09:17:13;10.50;;;8.57;;
29362;SDS011;16349;53.672;10.014;2022-11-18T09:19:41;11.07;;;8.40;;
29362;SDS011;16349;53.672;10.014;2022-11-18T09:22:08;10.63;;;8.43;;
29362;SDS011;16349;53.672;10.014;2022-11-18T09:24:35;9.13;;;7.77;;
29362;SDS011;16349;53.672;10.014;2022-11-18T09:27:02;11.07;;;7.70;;
29362;SDS011;16349;53.672;10.014;2022-11-18T09:29:30;10.67;;;8.03;;
29362;SDS011;16349;53.672;10.014;2022-11-18T09:31:57;9.97;;;7.67;;
29362;SDS011;16349;53.672;10.014;2022-11-18T09:34:26;10.47;;;8.00;;
29362;SDS011;16349;53.672;10.014;2022-11-18T09:36:54;9.33;;;7.10;;
29362;SDS011;16349;53.672;10.014;2022-11-18T09:39:22;10.83;;;7.90;;
29362;SDS011;16349;53.672;10.014;2022-11-18T09:41:51;11.83;;;7.23;;
29362;SDS011;16349;53.672;10.014;2022-11-18T09:44:29;8.53;;;6.73;;
29362;SDS011;16349;53.672;10.014;2022-11-18T09:47:12;9.17;;;6.70;;
29362;SDS011;16349;53.672;10.014;2022-11-18T09:49:48;9.23;;;7.07;;
29362;SDS011;16349;53.672;10.014;2022-11-18T09:52:17;7.80;;;6.37;;
29362;SDS011;16349;53.672;10.014;2022-11-18T09:54:46;10.53;;;7.13;;
29362;SDS011;16349;53.672;10.014;2022-11-18T09:57:14;9.87;;;7.13;;
29362;SDS011;16349;53.672;10.014;2022-11-18T09:59:42;11.87;;;7.10;;
29362;SDS011;16349;53.672;10.014;2022-11-18T10:02:19;10.70;;;7.00;;
29362;SDS011;16349;53.672;10.014;2022-11-18T10:05:13;9.30;;;6.80;;
29362;SDS011;16349;53.672;10.014;2022-11-18T10:07:46;7.70;;;6.40;;
29362;SDS011;16349;53.672;10.014;2022-11-18T10:10:18;7.10;;;6.00;;
29362;SDS011;16349;53.672;10.014;2022-11-18T10:12:51;9.30;;;6.40;;
29362;SDS011;16349;53.672;10.014;2022-11-18T10:15:25;6.93;;;6.17;;
29362;SDS011;16349;53.672;10.014;2022-11-18T10:17:58;7.33;;;6.20;;
29362;SDS011;16349;53.672;10.014;2022-11-18T10:20:36;7.40;;;5.97;;
29362;SDS011;16349;53.672;10.014;2022-11-18T10:23:16;8.90;;;6.33;;
29362;SDS011;16349;53.672;10.014;2022-11-18T10:25:46;6.43;;;5.33;;
29362;SDS011;16349;53.672;10.014;2022-11-18T10:28:14;7.83;;;5.67;;
29362;SDS011;16349;53.672;10.014;2022-11-18T10:30:45;8.97;;;5.90;;
29362;SDS011;16349;53.672;10.014;2022-11-18T10:33:22;6.23;;;5.63;;
29362;SDS011;16349;53.672;10.014;2022-11-18T10:36:07;6.37;;;5.10;;
29362;SDS011;16349;53.672;10.014;2022-11-18T10:38:45;5.80;;;4.43;;
29362;SDS011;16349;53.672;10.014;2022-11-18T10:41:12;5.03;;;4.53;;
29362;SDS011;16349;53.672;10.014;2022-11-18T10:43:42;6.87;;;5.13;;
29362;SDS011;16349;53.672;10.014;2022-11-18T10:46:18;6.17;;;4.87;;
29362;SDS011;16349;53.672;10.014;2022-11-18T10:51:41;5.60;;;4.50;;
29362;SDS011;16349;53.672;10.014;2022-11-18T10:54:14;6.60;;;4.83;;
29362;SDS011;16349;53.672;10.014;2022-11-18T10:56:46;4.87;;;4.37;;
29362;SDS011;16349;53.672;10.014;2022-11-18T10:59:20;6.07;;;4.67;;
29362;SDS011;16349;53.672;10.014;2022-11-18T11:01:57;7.30;;;4.40;;
29362;SDS011;16349;53.672;10.014;2022-11-18T11:04:28;5.37;;;4.63;;
29362;SDS011;16349;53.672;10.014;2022-11-18T11:06:56;5.50;;;4.57;;
29362;SDS011;16349;53.672;10.014;2022-11-18T11:09:26;5.20;;;4.40;;
29362;SDS011;16349;53.672;10.014;2022-11-18T11:11:54;5.63;;;4.40;;
29362;SDS011;16349;53.672;10.014;2022-11-18T11:14:26;6.37;;;4.93;;
29362;SDS011;16349;53.672;10.014;2022-11-18T11:16:58;4.73;;;4.33;;
29362;SDS011;16349;53.672;10.014;2022-11-18T11:19:34;4.97;;;4.47;;
29362;SDS011;16349;53.672;10.014;2022-11-18T11:22:07;5.40;;;4.33;;
29362;SDS011;16349;53.672;10.014;2022-11-18T11:24:37;5.10;;;4.13;;
29362;SDS011;16349;53.672;10.014;2022-11-18T11:27:06;7.53;;;4.70;;
29362;SDS011;16349;53.672;10.014;2022-11-18T11:29:54;6.87;;;5.43;;
29362;SDS011;16349;53.672;10.014;2022-11-18T11:32:45;4.80;;;4.30;;
29362;SDS011;16349;53.672;10.014;2022-11-18T11:35:29;5.27;;;4.10;;
29362;SDS011;16349;53.672;10.014;2022-11-18T11:38:02;5.70;;;4.33;;
29362;SDS011;16349;53.672;10.014;2022-11-18T11:40:40;5.50;;;4.33;;
29362;SDS011;16349;53.672;10.014;2022-11-18T11:43:23;5.17;;;4.47;;
29362;SDS011;16349;53.672;10.014;2022-11-18T11:46:08;4.80;;;4.33;;
29362;SDS011;16349;53.672;10.014;2022-11-18T11:48:46;5.20;;;4.23;;
29362;SDS011;16349;53.672;10.014;2022-11-18T11:51:23;5.50;;;4.23;;
29362;SDS011;16349;53.672;10.014;2022-11-18T11:54:01;5.23;;;4.17;;
29362;SDS011;16349;53.672;10.014;2022-11-18T11:56:43;5.93;;;4.53;;
29362;SDS011;16349;53.672;10.014;2022-11-18T11:59:17;5.33;;;4.03;;
29362;SDS011;16349;53.672;10.014;2022-11-18T12:01:57;5.70;;;4.10;;
29362;SDS011;16349;53.672;10.014;2022-11-18T12:04:35;7.77;;;5.10;;
29362;SDS011;16349;53.672;10.014;2022-11-18T12:07:11;4.00;;;3.60;;
29362;SDS011;16349;53.672;10.014;2022-11-18T12:09:44;5.13;;;4.00;;
29362;SDS011;16349;53.672;10.014;2022-11-18T12:12:29;4.17;;;3.63;;
29362;SDS011;16349;53.672;10.014;2022-11-18T12:15:05;6.03;;;4.20;;
29362;SDS011;16349;53.672;10.014;2022-11-18T12:17:44;5.50;;;3.80;;
29362;SDS011;16349;53.672;10.014;2022-11-18T12:23:15;4.83;;;3.93;;
29362;SDS011;16349;53.672;10.014;2022-11-18T12:25:52;4.40;;;3.67;;
29362;SDS011;16349;53.672;10.014;2022-11-18T12:28:29;6.07;;;3.50;;
29362;SDS011;16349;53.672;10.014;2022-11-18T12:33:59;4.93;;;3.40;;
29362;SDS011;16349;53.672;10.014;2022-11-18T12:40:11;4.17;;;3.00;;
29362;SDS011;16349;53.672;10.014;2022-11-18T12:43:10;7.77;;;3.23;;
29362;SDS011;16349;53.672;10.014;2022-11-18T12:55:13;3.37;;;2.70;;
29362;SDS011;16349;53.672;10.014;2022-11-18T12:57:41;5.50;;;3.43;;
29362;SDS011;16349;53.672;10.014;2022-11-18T13:00:15;5.63;;;2.80;;
29362;SDS011;16349;53.672;10.014;2022-11-18T13:02:54;3.67;;;3.03;;
29362;SDS011;16349;53.672;10.014;2022-11-18T13:05:23;4.43;;;3.50;;
29362;SDS011;16349;53.672;10.014;2022-11-18T13:07:53;4.40;;;2.90;;
29362;SDS011;16349;53.672;10.014;2022-11-18T13:10:46;3.60;;;2.27;;
29362;SDS011;16349;53.672;10.014;2022-11-18T13:13:22;3.50;;;2.60;;
29362;SDS011;16349;53.672;10.014;2022-11-18T13:15:51;3.63;;;2.60;;
29362;SDS011;16349;53.672;10.014;2022-11-18T13:18:50;4.07;;;2.90;;
29362;SDS011;16349;53.672;10.014;2022-11-18T13:21:21;4.43;;;3.00;;
29362;SDS011;16349;53.672;10.014;2022-11-18T13:24:09;3.67;;;2.67;;
29362;SDS011;16349;53.672;10.014;2022-11-18T13:26:38;3.83;;;2.50;;
29362;SDS011;16349;53.672;10.014;2022-11-18T13:29:14;2.30;;;2.00;;
29362;SDS011;16349;53.672;10.014;2022-11-18T13:31:53;8.97;;;2.90;;
29362;SDS011;16349;53.672;10.014;2022-11-18T13:34:30;3.60;;;2.67;;
29362;SDS011;16349;53.672;10.014;2022-11-18T13:37:11;3.83;;;2.50;;
29362;SDS011;16349;53.672;10.014;2022-11-18T13:39:42;3.10;;;2.10;;
29362;SDS011;16349;53.672;10.014;2022-11-18T13:42:13;3.57;;;1.97;;
29362;SDS011;16349;53.672;10.014;2022-11-18T13:44:43;3.20;;;2.37;;
29362;SDS011;16349;53.672;10.014;2022-11-18T13:47:18;2.47;;;2.17;;
29362;SDS011;16349;53.672;10.014;2022-11-18T13:49:52;2.37;;;2.07;;
29362;SDS011;16349;53.672;10.014;2022-11-18T13:52:26;3.00;;;1.97;;
29362;SDS011;16349;53.672;10.014;2022-11-18T13:54:56;4.07;;;2.43;;
29362;SDS011;16349;53.672;10.014;2022-11-18T13:57:25;3.47;;;2.23;;
29362;SDS011;16349;53.672;10.014;2022-11-18T13:59:53;2.73;;;2.00;;
29362;SDS011;16349;53.672;10.014;2022-11-18T14:02:21;2.53;;;2.20;;
29362;SDS011;16349;53.672;10.014;2022-11-18T14:04:48;5.27;;;2.17;;
29362;SDS011;16349;53.672;10.014;2022-11-18T14:07:29;4.93;;;2.23;;
29362;SDS011;16349;53.672;10.014;2022-11-18T14:09:58;2.90;;;2.33;;
29362;SDS011;16349;53.672;10.014;2022-11-18T14:12:28;2.30;;;2.03;;
29362;SDS011;16349;53.672;10.014;2022-11-18T14:15:12;5.13;;;2.53;;
29362;SDS011;16349;53.672;10.014;2022-11-18T14:17:48;2.53;;;2.20;;
29362;SDS011;16349;53.672;10.014;2022-11-18T14:20:18;2.67;;;2.20;;
29362;SDS011;16349;53.672;10.014;2022-11-18T14:22:45;4.27;;;1.73;;
29362;SDS011;16349;53.672;10.014;2022-11-18T14:25:16;2.53;;;1.87;;
29362;SDS011;16349;53.672;10.014;2022-11-18T14:27:44;2.60;;;2.23;;
29362;SDS011;16349;53.672;10.014;2022-11-18T14:30:30;2.50;;;1.73;;
29362;SDS011;16349;53.672;10.014;2022-11-18T14:33:11;4.20;;;2.30;;
29362;SDS011;16349;53.672;10.014;2022-11-18T14:35:42;2.30;;;2.10;;
29362;SDS011;16349;53.672;10.014;2022-11-18T14:38:13;4.37;;;2.43;;
29362;SDS011;16349;53.672;10.014;2022-11-18T14:40:42;2.23;;;1.83;;
29362;SDS011;16349;53.672;10.014;2022-11-18T14:43:09;3.93;;;2.47;;
29362;SDS011;16349;53.672;10.014;2022-11-18T14:45:37;3.03;;;2.10;;
29362;SDS011;16349;53.672;10.014;2022-11-18T14:48:04;3.33;;;2.10;;
29362;SDS011;16349;53.672;10.014;2022-11-18T14:50:32;3.43;;;2.00;;
29362;SDS011;16349;53.672;10.014;2022-11-18T14:53:00;3.10;;;2.30;;
29362;SDS011;16349;53.672;10.014;2022-11-18T14:55:27;2.17;;;1.97;;
29362;SDS011;16349;53.672;10.014;2022-11-18T14:57:54;1.73;;;1.63;;
29362;SDS011;16349;53.672;10.014;2022-11-18T15:00:20;1.87;;;1.67;;
29362;SDS011;16349;53.672;10.014;2022-11-18T15:02:47;2.53;;;1.93;;
29362;SDS011;16349;53.672;10.014;2022-11-18T15:05:14;5.33;;;2.27;;